Happy Valentine's Day! 

Flight Track Log - Related Links

Times and Time Zones

All times are in EDT time to prevent confusion due to time zone crossing. See the N8932U flight status page for this flight to view local times or setup timezone preferences in your user account.


Time Position Orientation Groundspeed Altitude Reporting Facility
EDT Latitude Longitude Course Direction KTS MPH feet Rate Location/Type
Thu 11:37:45 AM 34.7833 -83.9275 144° Southeast 158 182 4,500  Level Atlanta Center
Thu 11:38:45 AM 34.7522 -83.8997 144° Southeast 145 167 5,200 650 Climbing Atlanta Center
Thu 11:39:45 AM 34.7208 -83.8669 139° Southeast 151 174 5,800 700 Climbing Atlanta Center
Thu 11:40:45 AM 34.6875 -83.8569 166° South 139 160 6,600 750 Climbing Atlanta Center
Thu 11:41:45 AM 34.6539 -83.8444 163° South 126 145 7,300 650 Climbing Atlanta Center
Thu 11:42:45 AM 34.6206 -83.8344 166° South 126 145 7,900 400 Climbing Atlanta Center
Thu 11:43:45 AM 34.5831 -83.8217 164° South 126 145 8,100 50 Climbing Atlanta Center
Thu 11:44:45 AM 34.5350 -83.8094 168° South 155 178 8,000  Descending Atlanta Center
Thu 11:45:45 AM 34.4911 -83.7942 164° South 167 192 8,100  Climbing Atlanta Center
Thu 11:46:45 AM 34.4494 -83.7819 166° South 167 192 8,000 200 Descending Atlanta Center
Thu 11:47:45 AM 34.4014 -83.7694 168° South 172 198 8,500 450 Climbing Atlanta Center
Thu 11:48:45 AM 34.3594 -83.7544 164° South 163 188 8,900 300 Climbing Atlanta Center
Thu 11:49:45 AM 34.3156 -83.7419 167° South 163 188 9,100 100 Climbing Atlanta Center
Thu 11:50:45 AM 34.2719 -83.7322 170° South 163 188 9,100  Level Atlanta Center
Thu 11:51:45 AM 34.2197 -83.7197 169° South 175 201 9,100  Level Atlanta Center
Thu 11:52:45 AM 34.1694 -83.7072 168° South 175 201 9,100  Level Atlanta Center
Thu 11:53:45 AM 34.1214 -83.6950 168° South 180 207 9,100  Level Atlanta Center
Thu 11:54:45 AM 34.0733 -83.6828 168° South 180 207 9,100  Level Atlanta Center
Thu 11:55:45 AM 34.0253 -83.6703 168° South 180 207 9,100  Level Atlanta Center
Thu 11:56:45 AM 33.9753 -83.6556 166° South 180 207 9,100 30 Level Atlanta Center
Thu 11:59:05 AM 33.8667 -83.6333 170° South 176 203 9,200  Climbing Atlanta TRACON
Thu 12:00:10 PM 33.8167 -83.6167 165° South 180 207 9,100 -50 Descending Atlanta TRACON
Thu 12:01:05 PM 33.7667 -83.6000 165° South 180 207 9,100  Level Atlanta TRACON
Thu 12:01:59 PM 33.7167 -83.5833 165° South 181 208 9,100 -50 Level Atlanta TRACON
Thu 12:03:04 PM 33.6667 -83.5667 164° South 179 206 9,000 -48 Descending Atlanta TRACON
Thu 12:04:05 PM 33.6167 -83.5500 164° South 180 207 9,000 50 Level Atlanta TRACON
Thu 12:05:05 PM 33.5667 -83.5333 164° South 176 203 9,100 50 Climbing Atlanta TRACON
Thu 12:06:05 PM 33.5167 -83.5167 164° South 178 205 9,100  Level Atlanta TRACON
Thu 12:07:05 PM 33.4833 -83.5167 180° South 176 203 9,100  Level Atlanta TRACON
Thu 12:08:05 PM 33.4333 -83.5000 164° South 177 204 9,100  Level Atlanta TRACON
Thu 12:09:11 PM 33.3833 -83.4833 164° South 175 201 9,100 50 Level Atlanta TRACON
Thu 12:10:05 PM 33.3333 -83.4667 164° South 178 205 9,200  Climbing Atlanta TRACON
Thu 12:11:05 PM 33.2833 -83.4500 164° South 178 205 9,100 -50 Descending Atlanta TRACON
Thu 12:12:05 PM 33.2333 -83.4333 164° South 177 204 9,100 -53 Level Atlanta TRACON
Thu 12:12:59 PM 33.2000 -83.4167 157° South 178 205 9,000  Descending Atlanta TRACON
Thu 12:14:05 PM 33.1500 -83.4000 164° South 177 204 9,100 48 Climbing Atlanta TRACON
Thu 12:15:05 PM 33.1000 -83.3833 164° South 177 204 9,100  Level Atlanta TRACON
Thu 12:15:59 PM 33.0500 -83.3667 164° South 178 205 9,100 -53 Level Atlanta TRACON
Thu 12:16:59 PM 33.0000 -83.3500 164° South 180 207 9,000 -50 Descending Atlanta TRACON
Thu 12:17:59 PM 32.9667 -83.3333 157° South 178 205 9,000 50 Level Atlanta TRACON
Thu 12:18:59 PM 32.9167 -83.3167 164° South 176 203 9,100 50 Climbing Atlanta TRACON
Thu 12:19:59 PM 32.8667 -83.3000 164° South 181 208 9,100  Level Atlanta TRACON
Thu 12:20:59 PM 32.8167 -83.3000 180° South 179 206 9,100 -50 Level Atlanta TRACON
Thu 12:21:59 PM 32.7667 -83.2833 164° South 176 203 9,000 -53 Descending Atlanta TRACON
Thu 12:22:53 PM 32.7333 -83.2667 157° South 180 207 9,000  Level Atlanta TRACON
Thu 12:23:54 PM 32.6833 -83.2500 164° South 178 205 9,000  Level Atlanta TRACON
Thu 12:25:00 PM 32.6333 -83.2333 164° South 175 201 9,000  Level Atlanta TRACON
Thu 12:26:00 PM 32.5833 -83.2167 164° South 176 203 9,000 -37 Level Atlanta TRACON
Thu 12:27:41 PM 32.5003 -83.1906 165° South 184 212 8,900  Descending Jacksonville Center
Thu 12:28:41 PM 32.4522 -83.1758 166° South 184 212 9,000 100 Climbing Jacksonville Center
Thu 12:29:41 PM 32.4042 -83.1608 165° South 184 212 9,100 50 Climbing Jacksonville Center
Thu 12:30:41 PM 32.3606 -83.1433 161° South 184 212 9,100  Level Jacksonville Center
Thu 12:31:41 PM 32.3144 -83.1236 160° South 184 212 9,100 -50 Level Jacksonville Center
Thu 12:32:41 PM 32.2708 -83.1014 157° South 179 206 9,000 -50 Descending Jacksonville Center
Thu 12:33:41 PM 32.2247 -83.0817 160° South 173 199 9,000 50 Level Jacksonville Center
Thu 12:34:41 PM 32.1831 -83.0569 153° Southeast 173 199 9,100 50 Climbing Jacksonville Center
Thu 12:35:41 PM 32.1394 -83.0350 157° South 168 193 9,100  Level Jacksonville Center
Thu 12:36:41 PM 32.1039 -83.0153 155° Southeast 173 199 9,100  Level Jacksonville Center
Thu 12:37:41 PM 32.0558 -82.9906 156° South 173 199 9,100  Level Jacksonville Center
Thu 12:38:41 PM 32.0142 -82.9686 156° South 173 199 9,100  Level Jacksonville Center
Thu 12:39:41 PM 31.9703 -82.9417 152° Southeast 173 199 9,100  Level Jacksonville Center
Thu 12:40:41 PM 31.9286 -82.9169 153° Southeast 173 199 9,100  Level Jacksonville Center
Thu 12:41:41 PM 31.8847 -82.8950 157° South 173 199 9,100  Level Jacksonville Center
Thu 12:42:41 PM 31.8428 -82.8681 151° Southeast 173 199 9,100  Level Jacksonville Center
Thu 12:43:41 PM 31.7992 -82.8461 157° South 173 199 9,100  Level Jacksonville Center
Thu 12:44:41 PM 31.7553 -82.8192 152° Southeast 173 199 9,100  Level Jacksonville Center
Thu 12:45:41 PM 31.7133 -82.7950 154° Southeast 173 199 9,100  Level Jacksonville Center
Thu 12:46:41 PM 31.6717 -82.7731 156° South 173 199 9,100  Level Jacksonville Center
Thu 12:47:41 PM 31.6256 -82.7486 156° South 173 199 9,100  Level Jacksonville Center
Thu 12:48:41 PM 31.5839 -82.7267 156° South 173 199 9,100  Level Jacksonville Center
Thu 12:49:41 PM 31.5400 -82.7025 155° Southeast 173 199 9,100  Level Jacksonville Center
Thu 12:50:41 PM 31.4919 -82.6806 159° South 173 199 9,100 -50 Level Jacksonville Center
Thu 12:51:41 PM 31.4503 -82.6611 158° South 168 193 9,000  Descending Jacksonville Center
Thu 12:52:41 PM 31.4064 -82.6369 155° Southeast 173 199 9,100 50 Climbing Jacksonville Center
Thu 12:53:41 PM 31.3542 -82.6178 163° South 173 199 9,100 50 Level Jacksonville Center
Thu 12:54:41 PM 31.3122 -82.5958 156° South 173 199 9,200  Climbing Jacksonville Center
Thu 12:55:41 PM 31.2664 -82.5742 158° South 173 199 9,100 -50 Descending Jacksonville Center
Thu 12:56:41 PM 31.2183 -82.5647 170° South 173 199 9,100  Level Jacksonville Center
Thu 12:57:41 PM 31.1703 -82.5622 177° South 167 192 9,100 -50 Level Jacksonville Center
Thu 12:58:41 PM 31.1222 -82.5600 178° South 172 198 9,000  Descending Jacksonville Center
Thu 12:59:41 PM 31.0719 -82.5578 178° South 172 198 9,100 50 Climbing Jacksonville Center
Thu 01:00:41 PM 31.0281 -82.5458 167° South 172 198 9,100 -50 Level Jacksonville Center
Thu 01:01:41 PM 30.9800 -82.5411 175° South 178 205 9,000 -50 Descending Jacksonville Center
Thu 01:02:41 PM 30.9319 -82.5367 175° South 178 205 9,000 50 Level Jacksonville Center
Thu 01:03:41 PM 30.8842 -82.5294 173° South 178 205 9,100 50 Climbing Jacksonville Center
Thu 01:04:41 PM 30.8381 -82.5247 175° South 178 205 9,100 -50 Level Jacksonville Center
Thu 01:05:41 PM 30.7900 -82.5203 175° South 178 205 9,000 -50 Descending Jacksonville Center
Thu 01:06:41 PM 30.7419 -82.5156 175° South 178 205 9,000  Level Jacksonville Center
Thu 01:07:41 PM 30.6939 -82.5156 180° South 178 205 9,000  Level Jacksonville Center
Thu 01:08:41 PM 30.6458 -82.5158 180° South 178 205 9,000 50 Level Jacksonville Center
Thu 01:09:41 PM 30.5981 -82.5161 180° South 178 205 9,100  Climbing Jacksonville Center
Thu 01:10:41 PM 30.5519 -82.5211 185° South 178 205 9,000 -50 Descending Jacksonville Center
Thu 01:11:41 PM 30.5061 -82.5308 190° South 178 205 9,000  Level Jacksonville Center
Thu 01:12:41 PM 30.4603 -82.5431 193° South 178 205 9,000  Level Jacksonville Center
Thu 01:13:41 PM 30.4142 -82.5408 178° South 178 205 9,000  Level Jacksonville Center
Thu 01:14:41 PM 30.3683 -82.5314 170° South 178 205 9,000 50 Level Jacksonville Center
Thu 01:15:41 PM 30.3244 -82.5219 169° South 178 205 9,100 51 Climbing Jacksonville Center
Thu 01:16:39 PM 30.2764 -82.5125 170° South 165 190 9,100  Level Jacksonville Center
Thu 01:17:41 PM 30.2325 -82.5008 167° South 173 199 9,100 49 Level Jacksonville Center
Thu 01:18:41 PM 30.1886 -82.4914 169° South 173 199 9,200  Climbing Jacksonville Center
Thu 01:19:41 PM 30.1428 -82.4819 170° South 163 188 9,100  Descending Jacksonville Center
Thu 01:20:41 PM 30.0967 -82.4700 167° South 163 188 9,200  Climbing Jacksonville Center
Thu 01:21:41 PM 30.0528 -82.4558 164° South 163 188 9,100 -50 Descending Jacksonville Center
Thu 01:22:41 PM 30.0089 -82.4442 167° South 163 188 9,100  Level Jacksonville Center
Thu 01:23:52 PM 29.9483 -82.4300 169° South 171 197 9,100 50 Level Jacksonville Center
Thu 01:24:41 PM 29.9192 -82.4181 160° South 163 188 9,200 55 Climbing Jacksonville Center
Thu 01:25:41 PM 29.8731 -82.4039 165° South 163 188 9,200  Level Jacksonville Center
Thu 01:26:55 PM 29.8083 -82.3900 169° South 173 199 9,200  Level Jacksonville Center
Thu 01:27:56 PM 29.7603 -82.3783 168° South 175 201 9,200  Level Jacksonville Center
Thu 01:28:57 PM 29.7142 -82.3642 165° South 172 198 9,200  Level Jacksonville Center
Thu 01:29:58 PM 29.6683 -82.3522 167° South 172 198 9,200  Level Jacksonville Center
Thu 01:30:59 PM 29.6203 -82.3383 166° South 170 196 9,200  Level Jacksonville Center
Thu 01:32:00 PM 29.5742 -82.3242 165° South 173 199 9,200 -47 Level Jacksonville Center
Thu 01:33:07 PM 29.5242 -82.3197 176° South 171 197 9,100  Descending Jacksonville Center
Thu 01:34:08 PM 29.4739 -82.3081 169° South 165 190 9,200 52 Climbing Jacksonville Center
Thu 01:35:03 PM 29.4364 -82.3036 174° South 166 191 9,200 -49 Level Jacksonville Center
Thu 01:36:10 PM 29.3819 -82.2919 169° South 173 199 9,100 -47 Descending Jacksonville Center
Thu 01:37:11 PM 29.3381 -82.2803 167° South 166 191 9,100  Level Jacksonville Center
Thu 01:38:06 PM 29.2942 -82.2686 167° South 166 191 9,100 -207 Level Jacksonville Center
Thu 01:39:07 PM 29.2461 -82.2547 166° South 174 200 8,700 -639 Descending Jacksonville Center
Thu 01:40:08 PM 29.1917 -82.2383 165° South 199 229 7,800 -934 Descending Jacksonville Center
Thu 01:41:09 PM 29.1394 -82.2197 163° South 200 230 6,800 -885 Descending Jacksonville Center
Thu 01:42:10 PM 29.0872 -82.2106 171° South 195 224 6,000 -885 Descending Jacksonville Center
Thu 01:43:11 PM 29.0331 -82.2086 178° South 192 221 5,000 -689 Descending Jacksonville Center
Thu 01:44:12 PM 28.9808 -82.2019 174° South 171 197 4,600 -621 Descending Jacksonville Center
Thu 01:45:07 PM 28.9347 -82.2022 180° South 175 201 3,800 -590 Descending Jacksonville Center
Thu 01:46:14 PM 28.8847 -82.1931 171° South 174 200 3,400 -344 Descending Jacksonville Center
Thu 01:47:09 PM 28.8408 -82.1861 172° South 167 192 3,100 -327 Descending Jacksonville Center

Login

Don't have an account? Register now (free) for customized features, flight alerts, and more!